Time;durP1;ratioP1;P1;durP2;ratioP2;P2;SDS_P1;SDS_P2;PMS_P1;PMS_P2;Temp;Humidity;BMP_temperature;BMP_pressure;BME280_temperature;BME280_humidity;BME280_pressure;Samples;Min_cycle;Max_cycle;Signal;HPM_P1;HPM_P2
2023/09/16 07:23:09;;;;;;;14.75;13.30;;;;;;;-145.79;83.25;77057.22;5352132;27;20620;-67
2023/09/16 07:25:41;;;;;;;14.93;13.65;;;;;;;-145.79;83.16;77057.22;5329708;27;20175;-68
2023/09/16 07:28:12;;;;;;;13.32;12.02;;;;;;;-145.79;82.79;77042.38;5331149;27;20460;-68
2023/09/16 07:30:43;;;;;;;13.90;11.65;;;;;;;-145.79;82.93;77031.78;5334784;27;20446;-66
2023/09/16 07:33:15;;;;;;;11.82;10.57;;;;;;;-145.79;81.77;77008.47;5332297;28;20031;-67
2023/09/16 07:35:47;;;;;;;14.05;12.73;;;;;;;-145.79;81.74;77000.00;5330443;28;20032;-67
2023/09/16 07:38:18;;;;;;;13.18;11.82;;;;;;;-145.79;81.10;76987.28;5331089;28;20028;-67
2023/09/16 07:40:53;;;;;;;12.80;11.60;;;;;;;-145.79;81.07;76987.28;5332055;27;20030;-67
2023/09/16 07:43:24;;;;;;;12.50;11.30;;;;;;;-145.79;80.28;76966.09;5323312;28;20032;-67
2023/09/16 07:45:56;;;;;;;13.63;11.88;;;;;;;-145.79;80.21;76961.84;5329637;27;20487;-67
2023/09/16 07:48:27;;;;;;;12.68;11.40;;;;;;;-145.79;80.10;76957.59;5328678;27;20016;-65
2023/09/16 07:50:59;;;;;;;13.48;11.77;;;;;;;-145.79;79.63;76934.28;5334155;28;20035;-67
2023/09/16 07:53:31;;;;;;;11.68;10.50;;;;;;;-145.79;78.62;76932.19;5333201;28;20027;-67
2023/09/16 07:56:02;;;;;;;11.35;10.25;;;;;;;-145.79;77.79;76915.22;5328697;28;20077;-67
2023/09/16 07:58:34;;;;;;;11.77;9.95;;;;;;;-145.79;77.38;76915.22;5325673;27;20387;-66
2023/09/16 08:01:05;;;;;;;10.57;9.65;;;;;;;-145.79;76.87;76902.50;5327972;27;20033;-67
2023/09/16 08:03:37;;;;;;;13.15;10.95;;;;;;;-145.79;76.68;76902.50;5322434;28;20028;-68
2023/09/16 08:06:08;;;;;;;11.73;9.88;;;;;;;-145.79;76.37;76889.78;5329692;28;20408;-67
2023/09/16 08:08:40;;;;;;;12.23;11.13;;;;;;;-145.79;76.69;76889.78;5328643;27;20099;-67
2023/09/16 08:11:11;;;;;;;13.90;12.15;;;;;;;-145.79;76.83;76889.78;5331185;28;20565;-66
2023/09/16 08:13:43;;;;;;;12.98;11.88;;;;;;;-145.79;76.44;76877.06;5325645;28;20020;-67
2023/09/16 08:16:14;;;;;;;58.97;52.90;;;;;;;-145.79;76.54;76879.19;5331687;28;20054;-67
2023/09/16 08:18:45;;;;;;;15.75;14.32;;;;;;;-145.79;76.25;76868.59;5330192;28;20047;-67
2023/09/16 08:21:17;;;;;;;13.15;11.90;;;;;;;-145.79;76.11;76864.34;5329787;27;20044;-68
2023/09/16 08:23:48;;;;;;;11.00;10.00;;;;;;;-145.79;76.54;76860.13;5328249;28;20055;-67
2023/09/16 08:26:19;;;;;;;13.75;12.50;;;;;;;-145.79;75.49;76862.25;5331971;28;20466;-67
2023/09/16 08:28:51;;;;;;;12.20;11.05;;;;;;;-145.79;75.23;76847.41;5331812;27;20020;-66
2023/09/16 08:31:22;;;;;;;12.27;10.70;;;;;;;-145.79;74.75;76832.56;5329899;28;20145;-69
2023/09/16 08:33:54;;;;;;;12.20;10.90;;;;;;;-145.79;73.99;76828.31;5324139;28;20051;-67
2023/09/16 08:36:25;;;;;;;13.27;10.98;;;;;;;-145.79;73.34;76815.63;5315981;28;20486;-67
2023/09/16 08:38:57;;;;;;;12.13;10.30;;;;;;;-145.79;73.51;76811.38;5320743;28;20035;-66
2023/09/16 08:41:47;;;;;;;12.10;10.77;;;;;;;-145.79;72.83;76815.63;5316661;28;20046;-65
2023/09/16 08:44:22;;;;;;;12.18;10.93;;;;;;;-145.79;72.70;76809.25;5317545;28;20031;-67
2023/09/16 08:47:07;;;;;;;;;;;;;;;-145.79;73.09;76805.00;5312261;28;20102;-68
2023/09/16 08:49:44;;;;;;;12.25;11.00;;;;;;;-145.79;72.11;76796.53;5316991;28;20014;-67
2023/09/16 08:52:17;;;;;;;15.93;10.98;;;;;;;-145.79;72.67;76802.91;5313633;28;20036;-67
2023/09/16 08:54:49;;;;;;;11.50;10.40;;;;;;;-145.79;72.56;76790.19;5312692;28;20421;-67
2023/09/16 08:57:21;;;;;;;16.05;14.48;;;;;;;-145.79;72.18;76796.53;5319784;28;20028;-66
2023/09/16 08:59:53;;;;;;;12.77;11.32;;;;;;;-145.79;72.18;76779.59;5315011;28;20031;-65
2023/09/16 09:02:27;;;;;;;12.80;10.63;;;;;;;-145.79;72.76;76771.09;5307377;28;20460;-66
2023/09/16 09:04:59;;;;;;;15.65;13.07;;;;;;;-145.79;73.55;76758.38;5315933;28;20034;-67
2023/09/16 09:07:32;;;;;;;13.02;11.82;;;;;;;-145.79;74.51;76760.50;5314675;28;20027;-67
2023/09/16 09:10:04;;;;;;;14.32;13.07;;;;;;;-145.79;75.78;76758.38;5316753;28;20032;-67
2023/09/16 09:12:38;;;;;;;11.40;10.32;;;;;;;-145.79;74.62;76737.19;5316918;28;20056;-67
2023/09/16 09:15:11;;;;;;;13.57;12.18;;;;;;;-145.79;74.95;76741.44;5313815;28;20383;-68
2023/09/16 09:17:46;;;;;;;13.73;12.43;;;;;;;-145.79;74.90;76743.56;5313652;28;20145;-70
2023/09/16 09:20:19;;;;;;;13.25;11.88;;;;;;;-145.79;74.85;76754.16;5315469;28;20024;-69
2023/09/16 09:22:51;;;;;;;13.07;11.80;;;;;;;-145.79;74.71;76741.44;5313784;28;20117;-71
2023/09/16 09:25:25;;;;;;;13.18;11.93;;;;;;;-145.79;75.04;76730.84;5312459;28;20028;-67
2023/09/16 09:27:59;;;;;;;24.98;22.52;;;;;;;-145.79;74.91;76735.06;5313690;28;20036;-70
2023/09/16 09:30:31;;;;;;;16.02;12.90;;;;;;;-145.79;74.25;76737.19;5313736;28;20028;-69
2023/09/16 09:33:03;;;;;;;12.60;11.40;;;;;;;-145.79;74.05;76724.47;5306582;28;20456;-68
2023/09/16 09:35:34;;;;;;;12.70;11.30;;;;;;;-145.79;73.69;76707.53;5316213;28;20058;-69
2023/09/16 09:38:06;;;;;;;12.88;11.45;;;;;;;-145.79;72.78;76707.53;5317431;28;20051;-69
2023/09/16 09:40:37;;;;;;;12.00;10.75;;;;;;;-145.79;72.81;76701.16;5313100;28;20070;-67
2023/09/16 09:43:08;;;;;;;18.58;14.85;;;;;;;-145.79;72.25;76688.44;5313314;28;20036;-69
2023/09/16 09:45:41;;;;;;;11.95;10.32;;;;;;;-145.79;71.35;76677.84;5315684;28;20112;-69
2023/09/16 09:48:12;;;;;;;17.00;11.80;;;;;;;-145.79;70.90;76667.25;5316480;28;20027;-69
2023/09/16 09:50:43;;;;;;;13.80;11.63;;;;;;;-145.79;70.40;76669.38;5314522;27;20028;-70
2023/09/16 09:53:15;;;;;;;46.08;41.75;;;;;;;-145.79;70.06;76667.25;5315373;28;20027;-69
2023/09/16 09:55:48;;;;;;;36.67;33.38;;;;;;;-145.79;70.09;76665.16;5314755;28;20149;-69
2023/09/16 09:58:19;;;;;;;11.70;10.60;;;;;;;-145.79;69.79;76652.44;5310812;28;20077;-70
2023/09/16 10:00:51;;;;;;;10.77;9.68;;;;;;;-145.79;68.30;76631.22;5313537;28;20365;-69
2023/09/16 10:03:23;;;;;;;11.27;10.13;;;;;;;-145.79;68.09;76620.63;5317044;28;20023;-69
2023/09/16 10:05:58;;;;;;;10.48;9.68;;;;;;;-145.79;67.77;76607.91;5309783;28;20391;-69
2023/09/16 10:08:29;;;;;;;11.52;10.43;;;;;;;-145.79;67.70;76580.38;5316127;28;20028;-68
2023/09/16 10:11:01;;;;;;;11.52;9.00;;;;;;;-145.79;67.37;76578.25;5314352;28;20043;-68
2023/09/16 10:13:32;;;;;;;10.38;9.38;;;;;;;-145.79;67.55;76578.25;5313581;28;20023;-68
2023/09/16 10:16:05;;;;;;;10.43;9.43;;;;;;;-145.79;67.25;76567.66;5313515;28;20023;-67
2023/09/16 10:18:37;;;;;;;10.77;9.77;;;;;;;-145.79;67.10;76563.41;5312875;28;20024;-68
2023/09/16 10:21:10;;;;;;;9.68;8.77;;;;;;;-145.79;65.79;76538.00;5312080;28;20036;-69
2023/09/16 10:23:41;;;;;;;11.32;9.02;;;;;;;-145.79;65.46;76529.50;5311523;28;20475;-69
2023/09/16 10:26:13;;;;;;;10.40;8.55;;;;;;;-145.79;66.61;76516.78;5314484;28;20073;-69
2023/09/16 10:28:46;;;;;;;9.30;8.38;;;;;;;-145.79;65.40;76504.09;5315651;28;20020;-70
2023/09/16 10:31:18;;;;;;;10.07;9.02;;;;;;;-145.79;65.12;76525.28;5315611;28;20042;-70
2023/09/16 10:33:50;;;;;;;10.00;9.10;;;;;;;-145.79;66.10;76480.78;5313256;28;21550;-69
2023/09/16 10:36:22;;;;;;;9.60;8.48;;;;;;;-145.79;64.70;76482.88;5313471;28;20340;-69
2023/09/16 10:38:54;;;;;;;9.43;8.45;;;;;;;-145.79;64.42;76461.69;5310764;28;20039;-70
2023/09/16 10:41:26;;;;;;;20.95;19.15;;;;;;;-145.79;64.31;76474.41;5314002;28;20378;-69
2023/09/16 10:43:58;;;;;;;11.75;10.68;;;;;;;-145.79;64.08;76465.94;5311457;28;20034;-70
2023/09/16 10:46:30;;;;;;;9.63;8.77;;;;;;;-145.79;64.31;76455.34;5313052;28;20027;-69
2023/09/16 10:49:02;;;;;;;10.73;8.15;;;;;;;-145.79;64.53;76457.47;5308865;28;20472;-69
2023/09/16 10:51:42;;;;;;;9.30;8.18;;;;;;;-145.79;64.38;76457.47;5302701;28;20375;-70
2023/09/16 10:54:58;;;;;;;10.93;9.90;;;;;;;-145.79;64.75;76453.22;5314502;28;20606;-70
2023/09/16 10:57:39;;;;;;;10.15;9.25;;;;;;;-145.79;64.04;76457.47;5302184;28;20118;-69
2023/09/16 11:00:11;;;;;;;21.90;20.00;;;;;;;-145.79;63.80;76440.50;5305271;28;20162;-68
2023/09/16 11:02:49;;;;;;;10.60;9.60;;;;;;;-145.79;64.30;76419.31;5312813;28;20028;-70
2023/09/16 11:05:21;;;;;;;9.00;8.10;;;;;;;-145.79;63.49;76423.56;5308769;28;20038;-69
2023/09/16 11:07:54;;;;;;;10.07;9.18;;;;;;;-145.79;62.53;76417.19;5311728;28;20485;-70
2023/09/16 11:10:26;;;;;;;9.82;8.93;;;;;;;-145.79;62.62;76402.38;5304259;28;20016;-69
2023/09/16 11:12:58;;;;;;;13.68;11.57;;;;;;;-145.79;62.43;76396.00;5312029;28;20077;-71
2023/09/16 11:15:34;;;;;;;9.20;8.30;;;;;;;-145.79;62.06;76381.16;5315418;28;20019;-70
2023/09/16 11:18:08;;;;;;;9.98;8.98;;;;;;;-145.79;61.59;76359.97;5310831;28;20115;-68
2023/09/16 11:20:40;;;;;;;43.97;39.73;;;;;;;-145.79;60.77;76364.22;5310331;28;20024;-67
2023/09/16 11:23:12;;;;;;;10.57;9.57;;;;;;;-145.79;61.17;76353.63;5306119;28;20050;-67
2023/09/16 11:25:43;;;;;;;11.55;10.05;;;;;;;-145.79;60.85;76345.16;5314844;28;20023;-67
2023/09/16 11:28:18;;;;;;;11.48;10.32;;;;;;;-145.79;60.13;76347.25;5313293;28;20032;-68
2023/09/16 11:30:55;;;;;;;14.32;12.85;;;;;;;-145.79;60.34;76311.25;5311032;28;20028;-68
2023/09/16 11:33:34;;;;;;;11.05;10.00;;;;;;;-145.79;59.63;76317.59;5312470;28;20063;-68
2023/09/16 11:36:13;;;;;;;10.40;9.40;;;;;;;-145.79;60.04;76323.97;5311871;28;20435;-68
2023/09/16 11:38:55;;;;;;;12.20;11.10;;;;;;;-145.79;60.28;76319.72;5315483;28;20023;-68
2023/09/16 11:41:27;;;;;;;11.18;9.95;;;;;;;-145.79;60.14;76294.28;5305149;28;20386;-68
2023/09/16 11:43:59;;;;;;;13.35;11.23;;;;;;;-145.79;59.84;76309.13;5313264;28;20023;-68
2023/09/16 11:46:31;;;;;;;11.48;10.35;;;;;;;-145.79;59.92;76296.41;5311175;28;20024;-69
2023/09/16 11:49:05;;;;;;;12.05;10.35;;;;;;;-145.79;59.91;76296.41;5308612;28;20032;-67
2023/09/16 11:51:36;;;;;;;12.40;11.10;;;;;;;-145.79;59.63;76294.28;5304766;28;20084;-67
2023/09/16 11:54:08;;;;;;;21.90;19.67;;;;;;;-145.79;59.77;76290.06;5310889;28;20023;-67
2023/09/16 11:56:40;;;;;;;13.82;12.63;;;;;;;-145.79;60.05;76296.41;5310829;28;20034;-65
2023/09/16 11:59:12;;;;;;;13.65;10.90;;;;;;;-145.79;60.31;76302.75;5307757;28;20028;-67
2023/09/16 12:01:44;;;;;;;11.52;10.32;;;;;;;-145.79;60.31;76270.97;5309170;28;20052;-67
2023/09/16 12:04:17;;;;;;;15.13;11.77;;;;;;;-145.79;59.38;76256.16;5313534;28;20062;-67
2023/09/16 12:06:50;;;;;;;25.08;22.60;;;;;;;-145.79;60.31;76237.06;5313040;28;20024;-67
2023/09/16 12:09:24;;;;;;;12.07;10.98;;;;;;;-145.79;59.81;76234.97;5313470;28;20024;-68
2023/09/16 12:11:56;;;;;;;13.88;12.45;;;;;;;-145.79;58.89;76245.56;5316969;28;20032;-66
2023/09/16 12:14:28;;;;;;;11.88;10.63;;;;;;;-145.79;58.69;76215.88;5315567;28;20024;-66
2023/09/16 12:17:01;;;;;;;12.20;11.00;;;;;;;-145.79;58.22;76213.75;5315930;28;20024;-68
2023/09/16 12:19:33;;;;;;;11.77;10.60;;;;;;;-145.79;58.86;76211.66;5319702;27;20035;-67
2023/09/16 12:22:05;;;;;;;11.88;9.50;;;;;;;-145.79;58.18;76196.81;5317104;28;20150;-66
2023/09/16 12:24:36;;;;;;;11.70;10.50;;;;;;;-145.79;58.48;76203.16;5315088;28;20245;-67
2023/09/16 12:27:08;;;;;;;10.77;9.73;;;;;;;-145.79;57.91;76190.47;5315581;28;20044;-68
2023/09/16 12:29:40;;;;;;;10.90;9.90;;;;;;;-145.79;56.95;76198.94;5313511;28;20097;-67
2023/09/16 12:32:14;;;;;;;10.38;9.30;;;;;;;-145.79;57.14;76196.81;5315489;28;20032;-66
2023/09/16 12:35:03;;;;;;;10.98;8.70;;;;;;;-145.79;57.12;76186.22;5314454;28;20045;-67
2023/09/16 12:37:34;;;;;;;9.32;8.52;;;;;;;-145.79;56.66;76175.63;5314329;28;20046;-66
2023/09/16 12:40:06;;;;;;;11.23;9.70;;;;;;;-145.79;56.28;76177.75;5315355;28;20024;-66
2023/09/16 12:42:38;;;;;;;10.75;9.75;;;;;;;-145.79;56.04;76184.09;5317026;28;20020;-67
2023/09/16 12:45:10;;;;;;;11.07;9.95;;;;;;;-145.79;56.32;76173.50;5310961;28;20081;-67
2023/09/16 12:47:42;;;;;;;10.43;9.40;;;;;;;-145.79;56.68;76162.91;5321515;28;20420;-67
2023/09/16 12:50:14;;;;;;;11.50;10.38;;;;;;;-145.79;56.45;76160.78;5313467;28;20032;-65
2023/09/16 12:52:45;;;;;;;10.82;9.80;;;;;;;-145.79;56.95;76139.59;5314386;28;20046;-67
2023/09/16 12:55:17;;;;;;;12.32;10.38;;;;;;;-145.79;56.07;76131.13;5319119;28;20110;-66
2023/09/16 12:57:48;;;;;;;14.05;12.60;;;;;;;-145.79;55.82;76137.47;5317708;28;20380;-66
2023/09/16 13:00:21;;;;;;;12.32;10.23;;;;;;;-145.79;55.83;76126.88;5318198;28;20111;-66
2023/09/16 13:02:53;;;;;;;10.55;9.57;;;;;;;-145.79;55.75;76124.78;5316868;28;20050;-66
2023/09/16 13:05:26;;;;;;;10.45;9.38;;;;;;;-145.79;56.16;76133.25;5315886;28;20032;-67
2023/09/16 13:07:59;;;;;;;11.68;9.93;;;;;;;-145.79;55.86;76133.25;5316415;28;20103;-66
2023/09/16 13:10:32;;;;;;;10.63;9.68;;;;;;;-145.79;55.02;76126.88;5311794;28;20044;-69
2023/09/16 13:13:03;;;;;;;10.40;9.40;;;;;;;-145.79;55.30;76118.41;5302267;28;20043;-68
2023/09/16 13:15:41;;;;;;;9.90;9.00;;;;;;;-145.79;55.72;76116.28;5313599;28;20020;-68
2023/09/16 13:18:13;;;;;;;11.30;9.63;;;;;;;-145.79;55.73;76112.06;5316175;28;20109;-67
2023/09/16 13:20:44;;;;;;;11.35;10.18;;;;;;;-145.79;55.77;76109.94;5312556;28;20117;-68
2023/09/16 13:23:20;;;;;;;9.70;8.80;;;;;;;-145.79;55.79;76114.19;5316735;28;20055;-67
2023/09/16 13:25:54;;;;;;;11.75;10.65;;;;;;;-145.79;55.54;76105.69;5317384;28;20413;-67
2023/09/16 13:28:25;;;;;;;11.32;10.18;;;;;;;-145.79;55.23;76092.97;5313925;28;20028;-66
2023/09/16 13:30:57;;;;;;;9.95;9.00;;;;;;;-145.79;55.09;76082.38;5313655;28;20377;-66
2023/09/16 13:34:04;;;;;;;11.30;10.30;;;;;;;-145.79;54.60;76063.31;5313719;28;20158;-65
2023/09/16 13:36:40;;;;;;;10.98;9.93;;;;;;;-145.79;54.01;76067.56;5251752;28;20029;-65
2023/09/16 13:39:13;;;;;;;12.00;10.80;;;;;;;-145.79;53.49;76046.38;5314337;28;20100;-66
2023/09/16 13:41:44;;;;;;;10.10;9.07;;;;;;;-145.79;54.07;76044.25;5314453;28;20410;-67
2023/09/16 13:44:16;;;;;;;12.38;10.27;;;;;;;-145.79;54.48;76033.66;5316549;28;20032;-67
2023/09/16 13:46:47;;;;;;;10.25;9.35;;;;;;;-145.79;54.09;76016.69;5308801;28;20072;-66
2023/09/16 13:49:19;;;;;;;10.63;9.73;;;;;;;-145.79;52.95;76027.28;5312466;28;20028;-66
2023/09/16 13:51:53;;;;;;;10.80;9.68;;;;;;;-145.79;53.44;76035.78;5314382;28;20115;-66
2023/09/16 13:54:24;;;;;;;11.80;10.80;;;;;;;-145.79;53.84;76033.66;5310995;28;20343;-66
2023/09/16 13:56:55;;;;;;;14.05;11.20;;;;;;;-145.79;54.47;76040.00;5303931;28;20024;-66
2023/09/16 13:59:27;;;;;;;11.48;10.38;;;;;;;-145.79;55.36;76037.88;5319906;28;20122;-67
2023/09/16 14:01:58;;;;;;;17.73;16.02;;;;;;;-145.79;55.12;76037.88;5312942;28;20024;-67
2023/09/16 14:04:29;;;;;;;8.77;8.07;;;;;;;-145.79;55.14;76056.97;5313118;28;20024;-66
2023/09/16 14:07:01;;;;;;;9.52;8.60;;;;;;;-145.79;55.14;76076.03;5314821;28;20024;-67
2023/09/16 14:09:32;;;;;;;13.68;10.63;;;;;;;-145.79;54.62;76073.91;5315454;28;20076;-67
2023/09/16 14:12:04;;;;;;;13.27;11.82;;;;;;;-145.79;54.79;76086.63;5311317;28;20028;-67
2023/09/16 14:14:35;;;;;;;10.82;9.82;;;;;;;-145.79;55.55;76088.75;5312683;28;20428;-66
2023/09/16 14:17:06;;;;;;;9.82;8.82;;;;;;;-145.79;55.56;76097.22;5313642;28;20459;-67
2023/09/16 14:19:37;;;;;;;11.02;9.90;;;;;;;-145.79;55.55;76095.09;5316859;28;20387;-67
2023/09/16 14:22:10;;;;;;;9.40;8.50;;;;;;;-145.79;56.08;76101.47;5308438;28;20106;-65
2023/09/16 14:24:42;;;;;;;9.70;8.65;;;;;;;-145.79;56.61;76097.22;5314626;28;20050;-66
2023/09/16 14:27:13;;;;;;;8.98;8.07;;;;;;;-145.79;56.40;76084.50;5312924;28;20032;-66
2023/09/16 14:29:44;;;;;;;10.85;9.82;;;;;;;-145.79;56.54;76084.50;5316782;28;20110;-66
2023/09/16 14:32:16;;;;;;;11.13;10.23;;;;;;;-145.79;56.27;76097.22;5312075;28;20039;-67
2023/09/16 14:34:47;;;;;;;11.45;10.40;;;;;;;-145.79;56.49;76095.09;5315920;28;20027;-66
2023/09/16 14:37:19;;;;;;;10.93;9.93;;;;;;;-145.79;57.20;76105.69;5315276;28;20054;-67
2023/09/16 14:39:51;;;;;;;14.88;13.48;;;;;;;-145.79;57.92;76101.47;5312730;28;20146;-65
2023/09/16 14:42:22;;;;;;;9.88;8.98;;;;;;;-145.79;58.13;76095.09;5310870;28;20111;-67
2023/09/16 14:44:53;;;;;;;10.57;9.52;;;;;;;-145.79;58.23;76107.81;5310987;28;20228;-67
2023/09/16 14:47:25;;;;;;;10.23;9.32;;;;;;;-145.79;58.04;76101.47;5313611;28;20044;-67
2023/09/16 14:49:56;;;;;;;10.93;9.82;;;;;;;-145.79;57.85;76107.81;5313545;28;20061;-66
2023/09/16 14:52:29;;;;;;;9.65;8.77;;;;;;;-145.79;57.54;76095.09;5314729;28;20079;-67
2023/09/16 14:55:05;;;;;;;10.00;8.95;;;;;;;-145.79;57.77;76097.22;5311666;28;20043;-67
2023/09/16 14:57:37;;;;;;;10.40;9.50;;;;;;;-145.79;57.94;76107.81;5308044;28;20391;-68
2023/09/16 15:00:09;;;;;;;10.85;9.82;;;;;;;-145.79;57.61;76105.69;5313725;28;20039;-66
2023/09/16 15:02:42;;;;;;;10.43;9.32;;;;;;;-145.79;57.86;76092.97;5309659;28;20479;-67
2023/09/16 15:05:14;;;;;;;11.15;10.13;;;;;;;-145.79;57.29;76097.22;5313152;28;20059;-67
2023/09/16 15:07:45;;;;;;;10.18;9.20;;;;;;;-145.79;57.64;76090.88;5312993;28;20470;-68
2023/09/16 15:10:16;;;;;;;8.52;7.72;;;;;;;-145.79;58.21;76097.22;5311159;28;20107;-66
2023/09/16 15:12:48;;;;;;;10.88;9.82;;;;;;;-145.79;56.76;76101.47;5313361;28;20396;-67
2023/09/16 15:15:19;;;;;;;9.10;8.30;;;;;;;-145.79;56.43;76103.56;5316320;28;20080;-67
2023/09/16 15:17:50;;;;;;;14.68;13.52;;;;;;;-145.79;56.59;76103.56;5314779;28;20028;-67
2023/09/16 15:20:22;;;;;;;9.75;8.73;;;;;;;-145.79;57.11;76118.41;5306638;28;20060;-68
2023/09/16 15:22:54;;;;;;;9.90;8.85;;;;;;;-145.79;57.23;76105.69;5312451;28;20480;-67
2023/09/16 15:25:25;;;;;;;10.05;9.05;;;;;;;-145.79;58.03;76114.19;5294354;28;20414;-72
2023/09/16 15:27:56;;;;;;;10.95;9.90;;;;;;;-145.79;58.06;76101.47;5315387;28;20028;-70
2023/09/16 15:30:28;;;;;;;9.48;8.60;;;;;;;-145.79;58.51;76105.69;5304459;28;20338;-73
2023/09/16 15:32:59;;;;;;;10.35;9.40;;;;;;;-145.79;58.85;76114.19;5312020;28;20059;-74
2023/09/16 15:35:31;;;;;;;9.20;8.40;;;;;;;-145.79;59.38;76118.41;5307598;28;20034;-74
2023/09/16 15:38:03;;;;;;;9.73;8.82;;;;;;;-145.79;59.10;76116.28;5309688;28;20036;-73
2023/09/16 15:40:35;;;;;;;10.05;9.15;;;;;;;-145.79;59.44;76129.00;5309370;28;20510;-74
2023/09/16 15:43:06;;;;;;;10.15;8.95;;;;;;;-145.79;59.90;76129.00;5305388;28;20136;-75
2023/09/16 15:45:38;;;;;;;11.02;10.13;;;;;;;-145.79;60.88;76126.88;5315638;28;20110;-70
2023/09/16 15:48:10;;;;;;;11.80;10.70;;;;;;;-145.79;61.96;76129.00;5308710;28;20351;-69
2023/09/16 15:50:46;;;;;;;11.48;10.30;;;;;;;-145.79;61.59;76133.25;5317315;28;20028;-69
2023/09/16 15:53:18;;;;;;;11.45;10.35;;;;;;;-145.79;61.61;76141.72;5313481;28;20024;-69
2023/09/16 15:55:51;;;;;;;11.48;10.38;;;;;;;-145.79;62.50;76148.06;5306474;28;20028;-68
2023/09/16 15:58:23;;;;;;;11.75;10.02;;;;;;;-145.79;62.40;76154.44;5309311;28;20018;-68
2023/09/16 16:00:55;;;;;;;11.88;10.60;;;;;;;-145.79;62.57;76158.66;5314997;28;20058;-72
2023/09/16 16:03:27;;;;;;;10.85;9.80;;;;;;;-145.79;62.73;76162.91;5298076;28;20092;-74
2023/09/16 16:05:59;;;;;;;11.77;10.75;;;;;;;-145.79;63.10;76169.25;5310307;28;20142;-73
2023/09/16 16:08:30;;;;;;;11.02;10.02;;;;;;;-145.79;63.38;76181.97;5318430;28;20135;-75
2023/09/16 16:11:02;;;;;;;11.13;10.15;;;;;;;-145.79;63.57;76173.50;5316640;28;20052;-74
2023/09/16 16:13:33;;;;;;;11.85;10.75;;;;;;;-145.79;63.59;76173.50;5315679;28;20093;-73
2023/09/16 16:16:05;;;;;;;10.57;9.52;;;;;;;-145.79;63.46;76177.75;5314399;28;20420;-73
2023/09/16 16:18:36;;;;;;;11.80;9.38;;;;;;;-145.79;62.78;76181.97;5319304;28;20382;-73
2023/09/16 16:21:08;;;;;;;10.80;9.55;;;;;;;-145.79;63.26;76194.69;5318576;28;20116;-75
2023/09/16 16:23:39;;;;;;;10.82;9.25;;;;;;;-145.79;63.60;76198.94;5319348;28;20024;-71
2023/09/16 16:26:11;;;;;;;10.07;8.95;;;;;;;-145.79;63.76;76203.16;5317068;27;20435;-73
2023/09/16 16:28:42;;;;;;;10.10;9.23;;;;;;;-145.79;64.00;76203.16;5304982;28;20028;-73
2023/09/16 16:31:14;;;;;;;10.45;9.55;;;;;;;-145.79;64.38;76213.75;5315185;28;20480;-74
2023/09/16 16:33:45;;;;;;;10.10;9.20;;;;;;;-145.79;64.37;76211.66;5308904;28;20036;-72
2023/09/16 16:36:17;;;;;;;10.32;9.25;;;;;;;-145.79;64.65;76226.47;5308066;28;20060;-73
2023/09/16 16:38:48;;;;;;;9.40;8.52;;;;;;;-145.79;64.76;76220.13;5318811;28;20016;-73
2023/09/16 16:41:21;;;;;;;10.15;9.15;;;;;;;-145.79;64.90;76226.47;5315464;28;20439;-73
2023/09/16 16:43:52;;;;;;;10.40;9.52;;;;;;;-145.79;64.84;76228.59;5314560;28;20463;-73
2023/09/16 16:46:23;;;;;;;32.08;29.27;;;;;;;-145.79;65.12;76226.47;5316608;28;20030;-73
2023/09/16 16:48:54;;;;;;;31.10;28.35;;;;;;;-145.79;65.42;76234.97;5318301;28;20023;-74
2023/09/16 16:51:26;;;;;;;10.40;9.38;;;;;;;-145.79;65.58;76232.84;5315293;28;20023;-74
2023/09/16 16:53:57;;;;;;;10.60;9.45;;;;;;;-145.79;65.98;76245.56;5311819;28;20038;-75
